Time;durP1;ratioP1;P1;durP2;ratioP2;P2;SDS_P1;SDS_P2;PMS_P1;PMS_P2;Temp;Humidity;BMP_temperature;BMP_pressure;BME280_temperature;BME280_humidity;BME280_pressure;Samples;Min_cycle;Max_cycle;Signal;HPM_P1;HPM_P2
2021/07/01 00:00:15;;;;;;;7.05;2.25;;;24.50;92.40;;;;;;5102756;27;21087;-76
2021/07/01 00:02:47;;;;;;;7.43;2.50;;;24.60;92.50;;;;;;5099988;27;20208;-76
2021/07/01 00:05:17;;;;;;;5.70;2.28;;;24.60;92.90;;;;;;5085323;28;20297;-75
2021/07/01 00:07:46;;;;;;;8.88;2.53;;;24.60;92.80;;;;;;5084423;28;20185;-76
2021/07/01 00:10:26;;;;;;;5.30;2.35;;;24.60;92.20;;;;;;5088561;28;20947;-75
2021/07/01 00:12:56;;;;;;;4.82;2.78;;;24.60;92.40;;;;;;5080955;28;20654;-75
2021/07/01 00:15:28;;;;;;;7.82;2.45;;;24.50;92.40;;;;;;5084405;28;20178;-78
2021/07/01 00:18:04;;;;;;;9.13;2.50;;;24.60;92.60;;;;;;5089054;28;20205;-74
2021/07/01 00:20:32;;;;;;;4.47;2.03;;;24.50;92.60;;;;;;5095228;27;20266;-75
2021/07/01 00:22:59;;;;;;;5.90;2.17;;;24.60;92.50;;;;;;5099154;27;20186;-75
2021/07/01 00:25:26;;;;;;;7.40;2.35;;;24.60;92.20;;;;;;5086832;28;20189;-75
2021/07/01 00:27:52;;;;;;;6.80;2.15;;;24.60;92.10;;;;;;5088785;28;20265;-75
2021/07/01 00:30:21;;;;;;;9.15;2.50;;;24.60;91.40;;;;;;5083220;28;20218;-77
2021/07/01 00:32:48;;;;;;;5.18;2.38;;;24.70;91.70;;;;;;5087302;28;20239;-77
2021/07/01 00:35:15;;;;;;;10.67;2.80;;;24.70;91.60;;;;;;5087087;28;20262;-75
2021/07/01 00:37:42;;;;;;;9.23;2.40;;;24.70;91.50;;;;;;5086209;28;20259;-78
2021/07/01 00:40:12;;;;;;;12.43;2.20;;;24.70;91.40;;;;;;5087570;28;20181;-76
2021/07/01 00:42:39;;;;;;;7.18;2.70;;;24.70;91.30;;;;;;5099727;27;20194;-78
2021/07/01 00:45:08;;;;;;;4.35;2.22;;;24.70;91.00;;;;;;5082142;28;20186;-76
2021/07/01 00:47:35;;;;;;;6.97;2.05;;;24.70;90.60;;;;;;5081241;28;20189;-78
2021/07/01 00:50:08;;;;;;;3.58;2.08;;;24.70;90.70;;;;;;5074484;28;20301;-75
2021/07/01 00:52:35;;;;;;;7.80;2.55;;;24.70;90.70;;;;;;5077135;28;20462;-75
2021/07/01 00:55:02;;;;;;;8.68;2.17;;;24.70;90.50;;;;;;5087038;28;20860;-75
2021/07/01 00:57:29;;;;;;;5.57;2.25;;;24.70;90.50;;;;;;5085486;28;20735;-75
2021/07/01 00:59:55;;;;;;;5.93;2.15;;;24.70;90.20;;;;;;5069266;28;20697;-75
2021/07/01 01:02:21;;;;;;;9.60;2.20;;;24.70;90.40;;;;;;5084165;28;20247;-78
2021/07/01 01:04:51;;;;;;;5.43;1.98;;;24.80;89.90;;;;;;5078759;28;20193;-76
2021/07/01 01:07:18;;;;;;;8.18;2.83;;;24.80;89.30;;;;;;5102513;27;20277;-75
2021/07/01 01:09:45;;;;;;;4.73;1.67;;;24.80;89.00;;;;;;5083537;28;20210;-76
2021/07/01 01:12:11;;;;;;;7.13;1.90;;;24.80;88.20;;;;;;5069554;28;20182;-76
2021/07/01 01:14:39;;;;;;;9.10;2.13;;;24.70;88.20;;;;;;5100363;27;20178;-77
2021/07/01 01:17:06;;;;;;;7.78;2.22;;;24.70;87.70;;;;;;5088798;28;20197;-77
2021/07/01 01:19:35;;;;;;;6.30;1.92;;;24.70;87.80;;;;;;5080297;28;20198;-74
2021/07/01 01:22:02;;;;;;;5.00;2.08;;;24.80;88.20;;;;;;5059670;28;20311;-75
2021/07/01 01:24:33;;;;;;;3.75;2.00;;;24.70;88.70;;;;;;5099806;27;20218;-77
2021/07/01 01:27:00;;;;;;;4.22;1.75;;;24.80;88.10;;;;;;5086605;28;20635;-76
2021/07/01 01:29:26;;;;;;;6.72;2.20;;;24.70;88.20;;;;;;5082203;28;20211;-75
2021/07/01 01:57:47;;;;;;;4.43;2.08;;;24.50;86.60;;;;;;5102825;27;20186;-75
2021/07/01 02:00:16;;;;;;;5.27;2.10;;;24.50;85.70;;;;;;5085232;28;20257;-75
2021/07/01 02:02:43;;;;;;;3.58;1.60;;;24.50;86.40;;;;;;5067824;28;20182;-76
2021/07/01 02:05:10;;;;;;;5.37;1.90;;;24.50;85.70;;;;;;5078804;28;20526;-76
2021/07/01 02:07:38;;;;;;;8.85;2.00;;;24.50;85.90;;;;;;5080635;28;20621;-77
2021/07/01 02:10:09;;;;;;;7.75;1.98;;;24.50;85.80;;;;;;5080978;28;20217;-75
2021/07/01 02:12:35;;;;;;;3.80;1.88;;;24.50;85.60;;;;;;5063609;28;20296;-75
2021/07/01 02:15:11;;;;;;;12.77;2.25;;;24.50;85.50;;;;;;5084197;28;20182;-74
2021/07/01 02:17:39;;;;;;;8.63;1.87;;;24.50;85.20;;;;;;5083422;28;20205;-75
2021/07/01 02:20:12;;;;;;;6.15;2.20;;;24.50;85.60;;;;;;5083093;28;20229;-75
2021/07/01 02:22:39;;;;;;;5.57;1.92;;;24.40;84.90;;;;;;5087285;28;20216;-75
2021/07/01 02:25:08;;;;;;;5.30;1.87;;;24.40;85.20;;;;;;5078084;28;20196;-74
2021/07/01 02:27:36;;;;;;;7.43;2.30;;;24.30;84.90;;;;;;5074056;28;20191;-74
2021/07/01 02:30:09;;;;;;;5.28;2.15;;;24.30;84.80;;;;;;5109234;27;20673;-77
2021/07/01 02:32:37;;;;;;;6.17;2.10;;;24.30;84.70;;;;;;5094280;28;20273;-75
2021/07/01 02:35:06;;;;;;;6.63;2.22;;;24.30;84.60;;;;;;5093870;28;20181;-74
2021/07/01 02:37:32;;;;;;;4.70;2.13;;;24.30;84.70;;;;;;5088120;28;20183;-76
2021/07/01 02:39:59;;;;;;;10.50;2.25;;;24.30;84.60;;;;;;5103471;27;20335;-75
2021/07/01 02:42:26;;;;;;;8.30;2.33;;;24.30;84.50;;;;;;5098634;27;20194;-75
2021/07/01 02:44:52;;;;;;;7.20;1.98;;;24.30;84.50;;;;;;5087582;28;20260;-73
2021/07/01 02:47:19;;;;;;;5.43;2.00;;;24.40;84.30;;;;;;5089579;28;20661;-73
2021/07/01 02:49:46;;;;;;;6.77;2.10;;;24.40;83.80;;;;;;5088305;28;20219;-74
2021/07/01 02:52:12;;;;;;;6.60;2.17;;;24.50;83.80;;;;;;5093550;28;20185;-75
2021/07/01 02:54:38;;;;;;;8.50;2.70;;;24.50;83.70;;;;;;5087168;28;20617;-75
2021/07/01 02:57:04;;;;;;;7.63;2.10;;;24.50;83.80;;;;;;5092224;28;20201;-76
2021/07/01 02:59:31;;;;;;;5.95;1.98;;;24.60;83.70;;;;;;5074577;28;20301;-76
2021/07/01 03:01:57;;;;;;;7.05;2.15;;;24.60;83.00;;;;;;5105415;27;20227;-77
2021/07/01 03:04:24;;;;;;;5.88;1.90;;;24.60;84.30;;;;;;5070876;28;20336;-74
2021/07/01 03:06:50;;;;;;;9.07;2.10;;;24.60;83.70;;;;;;5109219;27;20220;-76
2021/07/01 03:09:16;;;;;;;4.50;2.00;;;24.60;85.60;;;;;;5106983;27;20190;-76
2021/07/01 03:11:42;;;;;;;8.85;2.10;;;24.70;84.30;;;;;;5090195;28;20255;-74
2021/07/01 03:14:09;;;;;;;9.40;2.20;;;24.70;83.90;;;;;;5105353;27;20182;-76
2021/07/01 03:16:35;;;;;;;6.78;2.10;;;24.70;84.40;;;;;;5091182;28;20339;-74
2021/07/01 03:19:03;;;;;;;8.55;2.30;;;24.70;84.30;;;;;;5108084;27;20189;-75
2021/07/01 03:21:29;;;;;;;10.13;2.63;;;24.60;84.30;;;;;;5085986;28;20201;-75
2021/07/01 03:23:56;;;;;;;7.68;2.20;;;24.60;84.20;;;;;;5086602;28;20301;-75
2021/07/01 03:26:22;;;;;;;6.35;1.80;;;24.60;84.50;;;;;;5078146;28;20182;-74
2021/07/01 03:28:48;;;;;;;4.63;2.15;;;24.60;85.10;;;;;;5106495;27;20170;-75
2021/07/01 03:31:15;;;;;;;8.65;1.80;;;24.60;84.80;;;;;;5082400;28;20210;-75
2021/07/01 03:33:42;;;;;;;3.75;2.00;;;24.60;84.60;;;;;;5088004;28;20228;-75
2021/07/01 03:36:08;;;;;;;4.97;2.30;;;24.60;85.60;;;;;;5106940;27;20178;-74
2021/07/01 03:38:36;;;;;;;7.03;2.13;;;24.60;85.20;;;;;;5091323;28;20190;-74
2021/07/01 03:41:06;;;;;;;6.80;2.10;;;24.50;85.40;;;;;;5105727;27;20400;-75
2021/07/01 03:43:39;;;;;;;4.57;1.95;;;24.50;85.50;;;;;;5086732;28;20185;-77
2021/07/01 03:46:07;;;;;;;7.22;2.20;;;24.50;85.70;;;;;;5089036;28;20185;-74
2021/07/01 03:48:35;;;;;;;8.70;2.08;;;24.50;85.80;;;;;;5089843;28;20189;-77
2021/07/01 03:51:03;;;;;;;11.30;2.00;;;24.50;86.30;;;;;;5071036;28;20574;-76
2021/07/01 03:53:29;;;;;;;5.15;2.22;;;24.50;86.60;;;;;;5088445;28;20797;-75
2021/07/01 03:55:55;;;;;;;8.55;2.30;;;24.50;86.60;;;;;;5081376;28;20222;-75
2021/07/01 03:58:22;;;;;;;4.85;2.00;;;24.50;87.10;;;;;;5097897;27;20182;-76
2021/07/01 04:00:48;;;;;;;7.13;2.33;;;24.50;86.90;;;;;;5086782;28;20202;-75
2021/07/01 04:03:14;;;;;;;8.23;2.03;;;24.60;87.10;;;;;;5084664;28;20186;-74
2021/07/01 04:05:40;;;;;;;7.90;2.08;;;24.60;87.30;;;;;;5086537;28;20190;-74
2021/07/01 04:08:07;;;;;;;3.43;2.20;;;24.60;89.00;;;;;;5087443;28;20274;-74
2021/07/01 04:10:33;;;;;;;6.43;2.00;;;24.60;88.60;;;;;;5082136;28;20210;-75
2021/07/01 04:13:00;;;;;;;5.15;2.00;;;24.60;88.80;;;;;;5086649;28;20179;-76
2021/07/01 04:15:26;;;;;;;5.60;1.90;;;24.70;89.20;;;;;;5086742;28;20230;-74
2021/07/01 04:17:52;;;;;;;5.20;1.63;;;24.70;89.00;;;;;;5072681;28;20178;-75
2021/07/01 04:20:19;;;;;;;8.93;1.90;;;24.70;89.30;;;;;;5088131;28;20547;-75
2021/07/01 04:22:45;;;;;;;6.63;2.20;;;24.80;90.00;;;;;;5090543;28;20261;-76
2021/07/01 04:25:12;;;;;;;2.57;1.60;;;24.80;90.10;;;;;;5088753;28;20182;-74
2021/07/01 04:27:39;;;;;;;5.03;2.30;;;24.90;90.30;;;;;;5100189;27;20185;-75
2021/07/01 04:30:07;;;;;;;4.25;1.83;;;24.90;90.50;;;;;;5073748;28;20228;-75
2021/07/01 04:32:34;;;;;;;5.22;1.90;;;24.90;90.50;;;;;;5090581;28;20654;-76
2021/07/01 04:35:01;;;;;;;4.43;1.50;;;25.00;90.20;;;;;;5104933;27;20182;-78
2021/07/01 04:37:27;;;;;;;3.88;1.90;;;25.10;90.60;;;;;;5105907;27;20455;-75
2021/07/01 04:39:53;;;;;;;4.18;1.80;;;25.10;90.10;;;;;;5106494;27;20187;-75
2021/07/01 04:42:19;;;;;;;4.40;2.00;;;25.20;90.30;;;;;;5089518;28;20265;-75
2021/07/01 04:44:46;;;;;;;3.45;1.80;;;25.30;90.70;;;;;;5087568;28;20190;-77
2021/07/01 04:47:12;;;;;;;4.65;2.00;;;25.30;90.80;;;;;;5108585;27;20193;-74
2021/07/01 04:49:38;;;;;;;2.65;1.80;;;25.30;91.20;;;;;;5087734;28;20210;-74
2021/07/01 04:52:05;;;;;;;3.20;1.65;;;25.30;91.60;;;;;;5092488;28;20194;-76
2021/07/01 04:54:31;;;;;;;3.75;1.70;;;25.40;91.80;;;;;;5090779;28;20181;-75
2021/07/01 04:56:57;;;;;;;7.22;1.90;;;25.40;91.70;;;;;;5109142;27;20718;-76
2021/07/01 04:59:24;;;;;;;6.90;1.80;;;25.50;91.60;;;;;;5075324;28;20194;-77
2021/07/01 05:01:50;;;;;;;5.63;1.90;;;25.50;91.70;;;;;;5090463;28;20186;-77
2021/07/01 05:04:16;;;;;;;3.55;1.60;;;25.50;91.50;;;;;;5105037;27;20189;-74
2021/07/01 05:06:43;;;;;;;4.05;1.67;;;25.60;91.30;;;;;;5086729;28;20699;-73
2021/07/01 05:09:10;;;;;;;2.17;1.80;;;25.60;91.20;;;;;;5083890;28;20212;-75
2021/07/01 05:11:37;;;;;;;5.93;2.00;;;25.60;90.70;;;;;;5087178;28;20186;-74
2021/07/01 05:14:04;;;;;;;5.15;2.00;;;25.70;90.20;;;;;;5103582;27;20186;-75
2021/07/01 05:16:33;;;;;;;6.80;2.10;;;25.70;90.50;;;;;;5102662;27;20185;-74
2021/07/01 05:19:01;;;;;;;6.18;1.73;;;25.80;90.20;;;;;;5089026;28;20211;-74
2021/07/01 05:21:28;;;;;;;7.43;1.70;;;25.80;90.60;;;;;;5103759;27;20221;-77
2021/07/01 05:23:55;;;;;;;5.22;1.70;;;25.90;90.90;;;;;;5092536;28;20182;-74
2021/07/01 05:26:23;;;;;;;4.20;1.80;;;25.90;90.60;;;;;;5087849;28;20185;-76
2021/07/01 05:28:50;;;;;;;4.18;1.75;;;25.90;91.00;;;;;;5101847;27;20197;-75
2021/07/01 05:31:17;;;;;;;6.50;1.98;;;26.10;90.70;;;;;;5096972;27;20317;-75
2021/07/01 05:33:43;;;;;;;5.32;1.98;;;26.20;89.20;;;;;;5089450;28;20269;-75
2021/07/01 05:36:10;;;;;;;8.15;2.13;;;26.40;85.60;;;;;;5089654;28;20348;-75
2021/07/01 05:38:37;;;;;;;5.32;2.10;;;26.60;89.90;;;;;;5074265;28;20186;-76
2021/07/01 05:41:03;;;;;;;3.88;1.90;;;27.10;83.90;;;;;;5087579;28;20292;-75
2021/07/01 05:43:30;;;;;;;13.93;2.30;;;27.30;83.70;;;;;;5065560;28;20182;-74
2021/07/01 05:45:57;;;;;;;7.15;2.13;;;27.60;84.10;;;;;;5107673;27;20204;-75
2021/07/01 05:48:25;;;;;;;6.53;2.55;;;27.80;83.30;;;;;;5090031;28;20182;-75
2021/07/01 05:51:13;;;;;;;14.85;2.28;;;28.00;82.70;;;;;;5103415;27;20711;-77
2021/07/01 05:56:05;;;;;;;5.88;2.47;;;27.80;85.60;;;;;;5104614;27;20170;-75
2021/07/01 05:58:32;;;;;;;11.60;3.22;;;27.60;84.80;;;;;;5088171;28;20182;-76
2021/07/01 06:00:58;;;;;;;7.65;2.10;;;28.00;81.70;;;;;;5092770;27;20197;-73
2021/07/01 06:03:24;;;;;;;5.45;2.13;;;28.00;87.00;;;;;;5082862;28;20595;-75
2021/07/01 06:06:13;;;;;;;13.55;2.05;;;27.80;86.90;;;;;;5102172;28;20185;-77
2021/07/01 06:08:42;;;;;;;7.70;2.20;;;27.50;88.10;;;;;;5107690;28;20190;-75
2021/07/01 06:11:08;;;;;;;9.68;2.50;;;27.40;88.00;;;;;;5101959;28;20279;-76
2021/07/01 06:13:42;;;;;;;7.93;2.25;;;27.70;83.00;;;;;;5103038;28;20193;-76
2021/07/01 06:16:15;;;;;;;6.15;1.88;;;27.70;82.80;;;;;;5084240;28;20185;-73
2021/07/01 06:18:42;;;;;;;13.43;2.70;;;28.30;82.30;;;;;;5082398;28;20305;-74
2021/07/01 06:21:10;;;;;;;11.38;2.30;;;28.20;83.80;;;;;;5070389;28;20182;-76
2021/07/01 06:23:40;;;;;;;4.07;2.20;;;28.30;80.50;;;;;;5072579;28;20522;-75
2021/07/01 06:26:08;;;;;;;6.57;2.28;;;27.80;86.10;;;;;;5104032;28;20331;-74
2021/07/01 06:28:41;;;;;;;5.68;2.10;;;27.70;88.10;;;;;;5073835;28;20590;-75
2021/07/01 06:31:09;;;;;;;6.78;2.47;;;28.10;84.30;;;;;;5085716;28;20980;-75
2021/07/01 06:33:42;;;;;;;6.25;2.28;;;28.30;79.40;;;;;;5083986;28;20285;-73
2021/07/01 06:36:13;;;;;;;4.88;2.13;;;28.70;82.10;;;;;;5083769;28;20214;-75
2021/07/01 06:38:46;;;;;;;8.15;1.90;;;29.00;73.80;;;;;;5102030;28;20269;-73
2021/07/01 06:41:14;;;;;;;4.47;1.92;;;28.80;76.00;;;;;;5102705;28;20189;-76
2021/07/01 06:43:47;;;;;;;8.15;2.20;;;28.50;78.50;;;;;;5084253;28;20614;-76
2021/07/01 06:46:19;;;;;;;4.90;2.15;;;28.60;77.70;;;;;;5084373;28;20251;-77
2021/07/01 06:48:48;;;;;;;8.38;2.35;;;29.00;76.20;;;;;;5087155;28;20216;-76
2021/07/01 06:51:16;;;;;;;5.72;2.40;;;29.60;71.40;;;;;;5104153;28;20202;-75
2021/07/01 06:53:45;;;;;;;11.05;2.33;;;29.90;70.20;;;;;;5086998;28;20656;-78
2021/07/01 06:56:15;;;;;;;5.93;1.90;;;29.90;71.40;;;;;;5098546;28;20206;-77
2021/07/01 06:58:44;;;;;;;4.72;2.20;;;29.40;77.10;;;;;;5085868;28;20511;-75
2021/07/01 07:01:11;;;;;;;6.38;2.15;;;30.20;68.70;;;;;;5064982;28;22296;-77
2021/07/01 07:03:37;;;;;;;7.25;2.03;;;30.30;67.20;;;;;;5061490;28;20684;-77
2021/07/01 07:06:06;;;;;;;6.22;1.92;;;30.70;69.60;;;;;;5087570;28;20673;-77
2021/07/01 07:08:34;;;;;;;12.75;2.15;;;30.60;66.50;;;;;;5086360;28;20190;-75
2021/07/01 07:11:01;;;;;;;6.65;2.35;;;30.60;65.30;;;;;;5107133;27;20233;-74
2021/07/01 07:13:27;;;;;;;6.10;1.80;;;30.80;72.20;;;;;;5102212;27;20202;-76
2021/07/01 07:16:00;;;;;;;9.25;1.75;;;30.90;65.50;;;;;;5093382;28;20208;-75
2021/07/01 07:18:31;;;;;;;6.40;2.25;;;30.80;67.30;;;;;;5090825;28;20190;-77
2021/07/01 07:21:01;;;;;;;9.80;2.53;;;31.00;67.20;;;;;;5104147;27;20185;-76
2021/07/01 07:23:36;;;;;;;10.02;2.33;;;31.00;66.80;;;;;;5105990;27;20194;-72
2021/07/01 07:26:20;;;;;;;10.27;2.30;;;30.90;69.50;;;;;;5081817;28;20197;-72
2021/07/01 07:28:53;;;;;;;9.38;2.20;;;31.20;68.30;;;;;;5083737;28;20208;-72
2021/07/01 07:31:24;;;;;;;12.32;2.53;;;31.00;69.10;;;;;;5098013;27;20562;-74
2021/07/01 07:34:04;;;;;;;7.28;2.22;;;31.70;67.20;;;;;;5078576;28;20190;-74
2021/07/01 07:36:34;;;;;;;5.57;1.88;;;31.80;66.70;;;;;;5106447;27;20193;-74
2021/07/01 07:39:01;;;;;;;8.18;2.65;;;31.70;66.60;;;;;;5067798;28;20190;-74
2021/07/01 07:41:28;;;;;;;5.88;2.97;;;31.60;69.90;;;;;;5087697;28;20246;-72
2021/07/01 07:43:55;;;;;;;5.95;2.30;;;32.10;69.80;;;;;;5100850;27;20217;-73
2021/07/01 07:46:26;;;;;;;6.00;2.50;;;31.70;68.60;;;;;;5103315;27;20200;-74
2021/07/01 07:48:53;;;;;;;8.25;2.50;;;32.10;68.50;;;;;;5081552;28;20233;-73
2021/07/01 07:51:29;;;;;;;5.00;2.25;;;32.20;69.30;;;;;;5087700;28;20298;-72
2021/07/01 07:54:03;;;;;;;6.75;2.63;;;32.20;70.20;;;;;;5085261;28;20520;-72
2021/07/01 07:56:37;;;;;;;6.93;2.78;;;31.90;70.90;;;;;;5100956;27;20178;-73
2021/07/01 07:59:11;;;;;;;8.73;2.28;;;31.60;72.40;;;;;;5067484;28;20217;-73
2021/07/01 08:01:39;;;;;;;8.50;2.20;;;32.20;68.10;;;;;;5067241;28;20181;-72
2021/07/01 08:04:12;;;;;;;9.20;2.42;;;32.50;70.20;;;;;;5076906;28;20194;-73
2021/07/01 08:06:43;;;;;;;6.35;2.42;;;32.50;68.90;;;;;;5099596;27;20214;-72
2021/07/01 08:09:13;;;;;;;6.13;2.40;;;32.60;68.00;;;;;;5080040;28;20190;-74
2021/07/01 08:11:42;;;;;;;11.38;2.55;;;32.70;66.80;;;;;;5080958;28;20194;-74
2021/07/01 08:14:09;;;;;;;10.38;2.60;;;32.80;67.50;;;;;;5080706;28;20194;-73
2021/07/01 08:16:36;;;;;;;12.63;2.60;;;32.90;68.50;;;;;;5097032;27;20182;-73
2021/07/01 08:19:03;;;;;;;7.00;2.92;;;32.70;70.00;;;;;;5119605;27;20247;-72
2021/07/01 08:21:30;;;;;;;9.05;2.90;;;32.60;71.10;;;;;;5066618;28;20282;-73
2021/07/01 08:23:58;;;;;;;14.75;2.50;;;32.40;69.00;;;;;;5082287;28;20187;-72
2021/07/01 08:26:25;;;;;;;6.45;2.40;;;32.90;66.50;;;;;;5084252;28;20186;-73
2021/07/01 08:28:54;;;;;;;9.25;2.33;;;32.70;69.90;;;;;;5103074;27;20186;-71
2021/07/01 08:31:21;;;;;;;6.88;2.08;;;32.70;64.70;;;;;;5101178;27;20312;-72
2021/07/01 08:33:49;;;;;;;5.18;2.20;;;32.90;60.60;;;;;;5078057;28;20232;-72
2021/07/01 08:36:20;;;;;;;6.65;2.60;;;32.90;64.60;;;;;;5091399;28;20186;-72
2021/07/01 08:38:54;;;;;;;8.23;2.60;;;32.90;64.60;;;;;;5062626;28;20190;-74
2021/07/01 08:41:30;;;;;;;7.40;2.83;;;33.10;66.00;;;;;;5077404;28;20677;-73
2021/07/01 08:44:07;;;;;;;6.90;2.67;;;33.40;69.30;;;;;;5081012;28;20208;-73
2021/07/01 08:47:15;;;;;;;10.65;2.75;;;33.20;71.10;;;;;;5084926;28;20285;-74
2021/07/01 08:49:57;;;;;;;9.65;2.60;;;32.90;68.80;;;;;;5095837;28;20205;-75
2021/07/01 08:52:32;;;;;;;10.57;2.85;;;32.90;69.80;;;;;;5099141;28;20185;-73
2021/07/01 08:55:05;;;;;;;5.82;2.90;;;33.60;70.00;;;;;;5095768;27;20178;-73
2021/07/01 08:57:36;;;;;;;10.10;3.22;;;33.60;68.70;;;;;;5094528;28;20182;-73
2021/07/01 09:00:10;;;;;;;13.35;3.13;;;33.70;71.20;;;;;;5061594;28;20194;-74
2021/07/01 09:02:43;;;;;;;11.10;2.90;;;33.60;72.30;;;;;;5081211;28;20190;-72
2021/07/01 09:05:17;;;;;;;9.75;2.88;;;33.60;69.60;;;;;;5080173;28;20198;-73
2021/07/01 09:07:54;;;;;;;8.68;2.50;;;33.70;67.30;;;;;;5091547;28;20217;-74
2021/07/01 09:10:22;;;;;;;13.93;2.70;;;34.20;68.60;;;;;;5078941;28;20216;-74
2021/07/01 09:12:54;;;;;;;7.13;2.45;;;33.90;66.80;;;;;;5096110;28;20312;-72
2021/07/01 09:15:22;;;;;;;6.63;2.30;;;34.00;64.50;;;;;;5079553;28;20181;-72
2021/07/01 09:17:51;;;;;;;7.80;2.15;;;34.00;62.90;;;;;;5080994;28;20235;-73
2021/07/01 09:20:28;;;;;;;4.88;1.90;;;34.20;64.10;;;;;;5079646;28;20533;-73
2021/07/01 09:22:57;;;;;;;8.90;2.30;;;34.10;59.50;;;;;;5096369;28;20191;-74
2021/07/01 09:25:24;;;;;;;5.45;2.28;;;34.40;59.90;;;;;;5105083;27;20778;-73
2021/07/01 09:27:54;;;;;;;8.20;2.35;;;34.20;63.70;;;;;;5082413;28;20284;-76
2021/07/01 09:30:26;;;;;;;7.60;1.98;;;34.60;62.90;;;;;;5077011;28;20206;-74
2021/07/01 09:33:07;;;;;;;6.75;2.45;;;34.50;63.40;;;;;;5098012;28;20174;-73
2021/07/01 09:35:37;;;;;;;7.82;2.55;;;34.80;59.40;;;;;;5077624;28;20576;-74
2021/07/01 09:38:10;;;;;;;10.40;3.00;;;34.50;62.30;;;;;;5075410;28;20194;-73
2021/07/01 09:40:38;;;;;;;7.50;2.10;;;34.80;63.20;;;;;;5114051;27;20198;-73
2021/07/01 09:43:09;;;;;;;10.50;2.70;;;34.90;59.60;;;;;;5083988;28;20224;-74
2021/07/01 09:45:40;;;;;;;9.55;2.70;;;34.80;60.50;;;;;;5081349;28;20721;-72
2021/07/01 09:48:11;;;;;;;11.65;3.05;;;35.10;61.00;;;;;;5079528;28;20190;-73
2021/07/01 09:50:50;;;;;;;7.25;2.53;;;35.00;63.10;;;;;;5080238;28;20218;-75
2021/07/01 09:53:32;;;;;;;9.75;1.92;;;35.00;61.00;;;;;;5081809;28;20262;-74
2021/07/01 09:56:08;;;;;;;5.78;2.08;;;35.30;54.70;;;;;;5081755;28;20231;-73
2021/07/01 09:58:49;;;;;;;14.38;2.78;;;35.30;55.50;;;;;;5078294;28;20186;-73
2021/07/01 10:01:29;;;;;;;4.85;2.20;;;35.30;58.40;;;;;;5079700;28;21006;-73
2021/07/01 10:04:00;;;;;;;7.25;2.50;;;35.50;56.20;;;;;;5080195;28;20210;-73
2021/07/01 10:06:28;;;;;;;6.03;2.00;;;35.30;57.20;;;;;;5079087;28;20305;-73
2021/07/01 10:08:55;;;;;;;4.13;1.70;;;35.40;55.00;;;;;;5072811;28;20214;-74
2021/07/01 10:11:41;;;;;;;7.05;2.03;;;35.70;55.20;;;;;;5079333;28;20211;-73
2021/07/01 10:14:15;;;;;;;5.07;1.70;;;35.50;53.50;;;;;;5082256;28;20206;-74
2021/07/01 10:16:42;;;;;;;7.95;1.80;;;35.70;51.90;;;;;;5068543;28;20178;-73
2021/07/01 10:19:23;;;;;;;6.38;1.92;;;35.90;51.50;;;;;;5094682;28;20820;-74
2021/07/01 10:22:05;;;;;;;4.90;2.05;;;35.70;52.30;;;;;;5077904;28;20182;-74
2021/07/01 10:24:46;;;;;;;5.75;2.10;;;35.80;50.20;;;;;;5082620;28;20181;-74
2021/07/01 10:27:26;;;;;;;3.53;1.50;;;35.90;52.60;;;;;;5102483;28;20224;-74
2021/07/01 10:29:57;;;;;;;7.00;2.10;;;36.00;50.50;;;;;;5103053;28;20205;-74
2021/07/01 10:32:38;;;;;;;13.40;1.80;;;36.00;51.20;;;;;;5068657;28;20183;-76
2021/07/01 10:35:39;;;;;;;8.75;1.80;;;35.60;49.80;;;;;;5103266;28;20185;-75
2021/07/01 10:38:14;;;;;;;8.27;2.00;;;36.10;48.70;;;;;;5079610;28;20186;-75
2021/07/01 10:40:47;;;;;;;6.15;1.80;;;36.20;50.10;;;;;;5059222;28;20207;-76
2021/07/01 10:43:17;;;;;;;6.72;2.00;;;36.30;47.50;;;;;;5104392;27;20205;-75
2021/07/01 10:45:57;;;;;;;4.43;1.35;;;36.50;48.20;;;;;;5103051;27;20177;-75
2021/07/01 10:48:26;;;;;;;4.72;2.10;;;36.40;46.00;;;;;;5107756;27;20772;-77
2021/07/01 10:50:55;;;;;;;4.25;1.77;;;36.30;48.70;;;;;;5087150;28;20309;-76
2021/07/01 10:53:31;;;;;;;9.48;1.70;;;36.20;48.90;;;;;;5078816;28;20189;-75
2021/07/01 10:56:17;;;;;;;5.30;1.85;;;36.30;48.40;;;;;;5106516;27;20813;-76
2021/07/01 10:58:58;;;;;;;6.50;1.92;;;35.70;52.20;;;;;;5085928;28;20194;-76
2021/07/01 11:01:34;;;;;;;6.90;1.80;;;36.00;53.10;;;;;;5091606;28;20190;-76
2021/07/01 11:04:19;;;;;;;7.30;1.77;;;35.30;55.60;;;;;;5107127;27;20198;-76
2021/07/01 11:07:03;;;;;;;2.33;1.70;;;35.50;53.50;;;;;;5108616;27;20193;-78
2021/07/01 11:09:45;;;;;;;10.50;1.98;;;36.00;49.30;;;;;;5079916;28;20201;-77
2021/07/01 11:12:12;;;;;;;6.97;1.48;;;36.20;51.30;;;;;;5080473;28;20202;-76
2021/07/01 11:14:48;;;;;;;3.53;1.80;;;36.10;46.90;;;;;;5076744;28;20276;-79
2021/07/01 11:17:17;;;;;;;2.78;1.48;;;36.30;46.80;;;;;;5107574;27;20577;-77
2021/07/01 11:19:46;;;;;;;7.45;2.03;;;36.20;50.80;;;;;;5090317;28;20697;-77
2021/07/01 11:22:14;;;;;;;12.45;2.20;;;36.30;50.80;;;;;;5094037;28;20202;-77
2021/07/01 11:24:46;;;;;;;8.13;2.05;;;36.00;52.60;;;;;;5068909;28;20182;-78
2021/07/01 11:27:24;;;;;;;13.57;2.50;;;35.80;53.70;;;;;;5080193;28;20178;-77
2021/07/01 11:29:51;;;;;;;4.40;2.13;;;36.00;56.00;;;;;;5091258;28;20665;-77
2021/07/01 11:32:25;;;;;;;5.25;1.92;;;35.80;54.20;;;;;;5091437;28;20178;-79
2021/07/01 11:34:56;;;;;;;5.43;2.00;;;35.90;52.10;;;;;;5122057;27;20518;-77
2021/07/01 11:37:38;;;;;;;9.00;2.35;;;36.10;53.10;;;;;;5102845;27;20169;-76
2021/07/01 11:40:21;;;;;;;7.60;2.50;;;35.80;55.40;;;;;;5097611;27;20630;-76
2021/07/01 11:42:50;;;;;;;6.32;1.60;;;35.40;57.80;;;;;;5083965;28;20281;-77
2021/07/01 11:45:18;;;;;;;5.20;2.08;;;35.10;55.90;;;;;;5079388;28;20197;-76
2021/07/01 11:47:47;;;;;;;7.90;1.90;;;35.70;53.80;;;;;;5108052;27;20243;-78
2021/07/01 11:50:14;;;;;;;7.20;1.80;;;35.80;54.60;;;;;;5088127;28;20202;-78
2021/07/01 11:52:42;;;;;;;6.57;2.10;;;35.90;50.80;;;;;;5092273;28;20277;-76
2021/07/01 11:55:11;;;;;;;10.80;2.17;;;36.00;52.80;;;;;;5095099;28;20189;-78
2021/07/01 11:57:39;;;;;;;8.73;1.90;;;36.00;53.40;;;;;;5105367;27;20178;-77
2021/07/01 12:00:06;;;;;;;9.85;2.05;;;36.10;52.20;;;;;;5091347;28;20280;-78
2021/07/01 12:02:36;;;;;;;7.32;2.28;;;36.30;51.80;;;;;;5108080;27;20568;-77
2021/07/01 12:05:06;;;;;;;7.10;2.42;;;36.30;53.80;;;;;;5104511;27;20174;-76
2021/07/01 12:07:35;;;;;;;4.97;2.38;;;36.20;54.40;;;;;;5094942;28;20190;-78
2021/07/01 12:10:02;;;;;;;3.92;1.80;;;36.30;53.50;;;;;;5092160;28;20202;-77
2021/07/01 12:12:34;;;;;;;9.77;2.17;;;36.20;53.60;;;;;;5065347;28;20186;-76
2021/07/01 12:15:07;;;;;;;8.80;2.13;;;36.30;53.70;;;;;;5095084;28;20709;-77
2021/07/01 12:18:04;;;;;;;5.22;1.67;;;35.60;55.20;;;;;;5088990;28;20190;-76
2021/07/01 12:20:45;;;;;;;6.65;2.20;;;35.60;53.50;;;;;;5121195;27;20551;-77
2021/07/01 12:23:11;;;;;;;7.43;2.20;;;35.20;55.80;;;;;;5102208;27;20657;-77
2021/07/01 12:25:39;;;;;;;7.70;2.15;;;36.00;55.70;;;;;;5092897;28;20182;-78
2021/07/01 12:28:06;;;;;;;3.78;1.90;;;36.40;53.50;;;;;;5111702;27;20182;-77
2021/07/01 12:31:03;;;;;;;8.75;2.20;;;36.30;50.80;;;;;;5091667;28;20309;-77
2021/07/01 12:34:07;;;;;;;5.28;1.95;;;36.40;53.80;;;;;;5122468;27;20240;-76
2021/07/01 12:36:44;;;;;;;3.70;2.10;;;36.40;51.90;;;;;;5088397;28;20760;-78
2021/07/01 12:39:11;;;;;;;7.45;2.03;;;36.20;52.80;;;;;;5086203;28;20243;-76
2021/07/01 12:41:42;;;;;;;3.60;2.00;;;36.10;51.80;;;;;;5090600;28;20205;-76
2021/07/01 12:44:13;;;;;;;5.75;1.77;;;36.30;50.40;;;;;;5083041;28;20185;-77
2021/07/01 12:49:33;;;;;;;5.38;2.10;;;36.30;51.80;;;;;;5084910;28;20309;-78
2021/07/01 12:52:13;;;;;;;6.82;2.03;;;36.30;51.70;;;;;;5082033;28;20206;-78
2021/07/01 12:54:40;;;;;;;14.57;2.38;;;36.10;52.80;;;;;;5099982;27;20208;-77
2021/07/01 12:57:11;;;;;;;4.00;2.00;;;35.50;56.10;;;;;;5102170;28;20893;-77
2021/07/01 12:59:50;;;;;;;7.93;2.08;;;35.50;55.50;;;;;;5087098;28;20554;-77
2021/07/01 13:02:33;;;;;;;3.97;1.67;;;35.30;54.00;;;;;;5085184;28;20190;-77
2021/07/01 13:05:10;;;;;;;4.93;2.20;;;35.80;50.70;;;;;;5100023;27;20303;-76
2021/07/01 13:07:38;;;;;;;5.53;1.45;;;35.70;50.20;;;;;;5089484;28;20182;-77
2021/07/01 13:10:11;;;;;;;4.40;1.50;;;35.80;49.10;;;;;;5084195;28;20202;-76
2021/07/01 13:12:42;;;;;;;5.28;1.65;;;35.70;49.20;;;;;;5071405;28;20243;-77
2021/07/01 13:15:24;;;;;;;3.45;1.50;;;35.50;49.10;;;;;;5062109;28;20417;-77
2021/07/01 13:17:52;;;;;;;7.38;1.88;;;35.60;49.40;;;;;;5089358;28;20827;-76
2021/07/01 13:20:21;;;;;;;9.00;1.75;;;35.30;51.90;;;;;;5106539;27;20276;-76
2021/07/01 13:22:48;;;;;;;7.47;1.92;;;35.50;49.80;;;;;;5087260;28;20265;-77
2021/07/01 13:25:24;;;;;;;5.20;1.80;;;35.20;48.80;;;;;;5094334;28;20193;-79
2021/07/01 13:28:00;;;;;;;6.38;1.58;;;35.60;48.90;;;;;;5100698;27;20189;-77
2021/07/01 13:30:41;;;;;;;2.75;1.40;;;35.60;48.00;;;;;;5104490;27;20210;-77
2021/07/01 13:33:11;;;;;;;4.38;1.50;;;35.50;48.20;;;;;;5100917;27;20184;-78